createdAt,value
2022-07-26T00:00:06.911Z,75
2022-07-26T00:02:05.134Z,76
2022-07-26T00:04:02.081Z,77
2022-07-26T00:06:06.086Z,77
2022-07-26T00:08:03.435Z,78
2022-07-26T00:10:04.269Z,78
2022-07-26T00:12:04.267Z,77
2022-07-26T00:14:05.552Z,76
2022-07-26T00:16:03.053Z,76
2022-07-26T00:18:03.160Z,78
2022-07-26T00:20:05.330Z,78
2022-07-26T00:22:03.105Z,78
2022-07-26T00:24:04.431Z,77
2022-07-26T00:26:04.684Z,77
2022-07-26T00:28:05.238Z,78
2022-07-26T00:30:06.238Z,78
2022-07-26T00:32:04.515Z,79
2022-07-26T00:34:02.956Z,79
2022-07-26T00:36:05.250Z,77
2022-07-26T00:40:06.202Z,79
2022-07-26T00:42:04.794Z,79
2022-07-26T00:44:04.999Z,79
2022-07-26T00:46:06.217Z,78
2022-07-26T00:48:03.405Z,78
2022-07-26T00:50:03.031Z,78
2022-07-26T00:52:04.345Z,76
2022-07-26T00:54:05.394Z,79
2022-07-26T00:56:03.095Z,79
2022-07-26T00:58:01.107Z,79
2022-07-26T01:00:03.030Z,79
2022-07-26T01:02:06.138Z,79
2022-07-26T01:04:03.015Z,78
2022-07-26T01:06:03.802Z,79
2022-07-26T01:08:05.348Z,76
2022-07-26T01:10:03.615Z,75
2022-07-26T01:12:03.156Z,75
2022-07-26T01:14:04.372Z,76
2022-07-26T01:16:03.218Z,76
2022-07-26T01:18:05.192Z,76
2022-07-26T01:20:04.250Z,76
2022-07-26T01:22:04.806Z,76
2022-07-26T01:24:06.134Z,78
2022-07-26T01:26:05.359Z,76
2022-07-26T01:28:05.169Z,76
2022-07-26T01:30:06.008Z,75
2022-07-26T01:32:03.062Z,75
2022-07-26T01:34:03.116Z,75
2022-07-26T01:36:03.143Z,75
2022-07-26T01:38:02.862Z,75
2022-07-26T01:40:05.318Z,74
2022-07-26T01:42:03.451Z,75
2022-07-26T01:44:05.640Z,76
2022-07-26T01:46:03.213Z,75
2022-07-26T01:48:06.135Z,74
2022-07-26T01:50:03.234Z,74
2022-07-26T01:52:03.161Z,74
2022-07-26T01:54:04.957Z,73
2022-07-26T01:56:03.112Z,71
2022-07-26T01:58:04.230Z,73
2022-07-26T02:00:03.108Z,72
2022-07-26T02:02:05.866Z,73
2022-07-26T02:04:06.409Z,73
2022-07-26T02:06:03.137Z,73
2022-07-26T02:08:04.817Z,73
2022-07-26T02:10:02.465Z,74
2022-07-26T02:12:05.276Z,74
2022-07-26T02:14:03.101Z,73
2022-07-26T02:16:03.144Z,73
2022-07-26T02:18:06.383Z,73
2022-07-26T02:20:05.281Z,73
2022-07-26T02:22:03.999Z,73
2022-07-26T02:24:03.682Z,73
2022-07-26T02:26:03.889Z,74
2022-07-26T02:28:03.118Z,74
2022-07-26T02:30:03.472Z,74
2022-07-26T02:32:06.123Z,73
2022-07-26T02:34:01.720Z,73
2022-07-26T02:36:03.534Z,73
2022-07-26T02:38:06.135Z,72
2022-07-26T02:40:06.025Z,73
2022-07-26T02:42:04.913Z,73
2022-07-26T02:44:06.000Z,72
2022-07-26T02:46:04.911Z,73
2022-07-26T02:48:03.478Z,73
2022-07-26T02:50:05.648Z,71
2022-07-26T02:52:04.417Z,72
2022-07-26T02:54:03.143Z,73
2022-07-26T02:56:06.325Z,73
2022-07-26T02:58:07.707Z,73
2022-07-26T03:00:05.425Z,74
2022-07-26T03:02:03.195Z,73
2022-07-26T03:04:04.849Z,74
2022-07-26T03:06:06.156Z,74
2022-07-26T03:08:05.901Z,74
2022-07-26T03:10:03.188Z,73
2022-07-26T03:12:04.227Z,74
2022-07-26T03:14:03.154Z,75
2022-07-26T03:16:03.142Z,75
2022-07-26T03:18:03.048Z,74
2022-07-26T03:20:03.200Z,73
2022-07-26T03:22:03.431Z,74
2022-07-26T03:24:03.129Z,73
2022-07-26T03:26:03.139Z,74
2022-07-26T03:28:03.411Z,74
2022-07-26T03:30:03.118Z,74
2022-07-26T03:32:03.013Z,74
2022-07-26T03:34:03.478Z,74
2022-07-26T03:36:03.155Z,74
2022-07-26T03:38:03.062Z,74
2022-07-26T03:40:03.067Z,74
2022-07-26T03:42:03.942Z,74
2022-07-26T03:44:03.694Z,74
2022-07-26T03:46:03.140Z,75
2022-07-26T03:48:00.989Z,74
2022-07-26T03:50:03.492Z,74
2022-07-26T03:52:06.377Z,74
2022-07-26T03:54:03.070Z,72
2022-07-26T03:56:05.571Z,73
2022-07-26T03:58:06.233Z,74
2022-07-26T04:00:01.836Z,75
2022-07-26T04:02:03.294Z,74
2022-07-26T04:04:04.865Z,75
2022-07-26T04:06:03.115Z,73
2022-07-26T04:08:06.176Z,73
2022-07-26T04:10:05.753Z,73
2022-07-26T04:12:01.739Z,73
2022-07-26T04:14:06.285Z,72
2022-07-26T04:16:03.023Z,74
2022-07-26T04:18:06.269Z,75
2022-07-26T04:20:05.939Z,73
2022-07-26T04:22:03.189Z,73
2022-07-26T04:24:03.127Z,74
2022-07-26T04:26:01.215Z,73
2022-07-26T04:28:05.598Z,73
2022-07-26T04:30:08.484Z,74
2022-07-26T04:32:03.225Z,74
2022-07-26T04:34:04.695Z,75
2022-07-26T04:36:03.213Z,74
2022-07-26T04:38:02.276Z,75
2022-07-26T04:40:06.212Z,75
2022-07-26T04:42:01.388Z,76
2022-07-26T04:44:03.083Z,76
2022-07-26T04:46:02.656Z,76
2022-07-26T04:48:03.845Z,76
2022-07-26T04:50:03.740Z,75
2022-07-26T04:52:03.195Z,75
2022-07-26T04:54:03.168Z,75
2022-07-26T04:56:05.661Z,73
2022-07-26T04:58:03.064Z,74
2022-07-26T05:02:04.080Z,75
2022-07-26T05:04:05.662Z,75
2022-07-26T05:06:03.111Z,75
2022-07-26T05:08:04.868Z,75
2022-07-26T05:10:04.869Z,74
2022-07-26T05:12:05.139Z,74
2022-07-26T05:14:02.670Z,74
2022-07-26T05:16:03.034Z,75
2022-07-26T05:18:06.898Z,75
2022-07-26T05:20:03.531Z,76
2022-07-26T05:22:09.892Z,75
2022-07-26T05:24:07.608Z,75
2022-07-26T05:26:05.259Z,75
2022-07-26T05:28:09.372Z,74
2022-07-26T05:30:06.161Z,75
2022-07-26T05:32:03.246Z,74
2022-07-26T05:34:06.699Z,75
2022-07-26T05:36:03.140Z,75
2022-07-26T05:38:04.508Z,75
2022-07-26T05:40:03.167Z,74
2022-07-26T05:42:04.859Z,73
2022-07-26T05:44:04.977Z,74
2022-07-26T05:46:06.603Z,72
2022-07-26T05:48:05.446Z,72
2022-07-26T05:50:06.612Z,72
2022-07-26T05:52:05.295Z,73
2022-07-26T05:54:05.816Z,72
2022-07-26T05:56:04.820Z,73
2022-07-26T05:58:06.208Z,72
2022-07-26T06:02:03.540Z,73
2022-07-26T06:04:04.837Z,73
2022-07-26T06:06:03.151Z,75
2022-07-26T06:08:05.578Z,75
2022-07-26T06:10:03.111Z,75
2022-07-26T06:12:03.965Z,76
2022-07-26T06:14:03.109Z,77
2022-07-26T06:16:03.057Z,77
2022-07-26T06:18:04.765Z,78
2022-07-26T06:20:02.978Z,78
2022-07-26T06:22:02.743Z,78
2022-07-26T06:24:06.514Z,77
2022-07-26T06:26:04.324Z,77
2022-07-26T06:28:01.328Z,76
2022-07-26T06:30:06.479Z,76
2022-07-26T06:32:04.009Z,75
2022-07-26T06:34:06.115Z,75
2022-07-26T06:36:03.206Z,73
2022-07-26T06:38:06.205Z,74
2022-07-26T06:40:04.396Z,73
2022-07-26T06:42:04.296Z,72
2022-07-26T06:44:01.066Z,73
2022-07-26T06:46:04.801Z,73
2022-07-26T06:48:04.751Z,73
2022-07-26T06:50:03.781Z,73
2022-07-26T06:52:01.651Z,72
2022-07-26T06:54:03.598Z,71
2022-07-26T06:56:03.138Z,70
2022-07-26T06:58:01.678Z,70
2022-07-26T07:00:04.105Z,69
2022-07-26T07:02:02.914Z,69
2022-07-26T07:04:06.317Z,70
2022-07-26T07:06:04.216Z,69
2022-07-26T07:08:04.347Z,68
2022-07-26T07:10:04.848Z,65
2022-07-26T07:12:08.547Z,66
2022-07-26T07:14:05.519Z,67
2022-07-26T07:16:04.210Z,67
2022-07-26T07:18:03.076Z,68
2022-07-26T07:20:06.502Z,68
2022-07-26T07:22:04.891Z,64
2022-07-26T07:24:04.159Z,64
2022-07-26T07:26:04.344Z,63
2022-07-26T07:28:07.306Z,63
2022-07-26T07:30:02.707Z,62
2022-07-26T07:32:05.283Z,62
2022-07-26T07:34:06.228Z,63
2022-07-26T07:36:05.913Z,62
2022-07-26T07:38:04.882Z,59
2022-07-26T07:40:03.685Z,60
2022-07-26T07:42:05.115Z,61
2022-07-26T07:44:03.184Z,61
2022-07-26T07:46:03.055Z,60
2022-07-26T07:48:01.456Z,58
2022-07-26T07:50:03.135Z,60
2022-07-26T07:52:06.124Z,58
2022-07-26T07:54:06.115Z,58
2022-07-26T07:56:04.602Z,58
2022-07-26T07:58:06.008Z,57
2022-07-26T08:00:09.447Z,57
2022-07-26T08:02:06.103Z,56
2022-07-26T08:04:04.785Z,59
2022-07-26T08:06:04.741Z,60
2022-07-26T08:08:06.137Z,60
2022-07-26T08:10:02.685Z,59
2022-07-26T08:12:06.131Z,59
2022-07-26T08:14:03.166Z,60
2022-07-26T08:16:06.195Z,60
2022-07-26T08:18:03.184Z,59
2022-07-26T08:20:10.229Z,59
2022-07-26T08:22:04.508Z,58
2022-07-26T08:24:03.083Z,60
2022-07-26T08:26:06.396Z,58
2022-07-26T08:28:04.200Z,58
2022-07-26T08:30:04.495Z,58
2022-07-26T08:32:02.051Z,56
2022-07-26T08:34:05.142Z,56
2022-07-26T08:36:05.446Z,55
2022-07-26T08:38:05.624Z,56
2022-07-26T08:40:04.827Z,56
2022-07-26T08:42:03.927Z,55
2022-07-26T08:44:00.626Z,54
2022-07-26T08:46:04.774Z,55
2022-07-26T08:48:17.074Z,57
2022-07-26T08:50:06.364Z,56
2022-07-26T08:52:06.357Z,57
2022-07-26T08:54:05.576Z,56
2022-07-26T08:56:07.147Z,59
2022-07-26T09:00:03.221Z,56
2022-07-26T09:02:04.911Z,55
2022-07-26T09:04:04.925Z,56
2022-07-26T09:06:03.241Z,54
2022-07-26T09:08:05.955Z,54
2022-07-26T09:10:03.120Z,54
2022-07-26T09:12:05.261Z,55
2022-07-26T09:16:03.127Z,54
2022-07-26T09:18:02.907Z,54
2022-07-26T09:20:03.479Z,53
2022-07-26T09:22:07.153Z,54
2022-07-26T09:24:03.096Z,54
2022-07-26T09:26:05.314Z,55
2022-07-26T09:28:06.180Z,53
2022-07-26T09:30:03.159Z,53
2022-07-26T09:32:03.138Z,54
2022-07-26T09:34:06.673Z,56
2022-07-26T09:36:03.289Z,56
2022-07-26T09:40:04.678Z,56
2022-07-26T09:42:25.383Z,56
2022-07-26T09:44:06.042Z,57
2022-07-26T09:46:06.305Z,57
2022-07-26T09:48:06.143Z,59
2022-07-26T09:50:09.309Z,59
2022-07-26T09:52:04.537Z,60
2022-07-26T09:54:05.815Z,59
2022-07-26T09:56:06.345Z,59
2022-07-26T09:58:06.221Z,60
2022-07-26T10:00:03.913Z,60
2022-07-26T10:04:03.140Z,57
2022-07-26T10:06:03.147Z,57
2022-07-26T10:08:03.135Z,55
2022-07-26T10:10:03.567Z,56
2022-07-26T10:12:05.389Z,56
2022-07-26T10:14:03.425Z,55
2022-07-26T10:16:04.592Z,56
2022-07-26T10:18:03.090Z,55
2022-07-26T10:20:08.508Z,56
2022-07-26T10:22:05.022Z,54
2022-07-26T10:24:03.087Z,54
2022-07-26T10:26:03.350Z,53
2022-07-26T10:28:03.133Z,54
2022-07-26T10:30:03.228Z,56
2022-07-26T10:32:04.976Z,56
2022-07-26T10:34:06.374Z,54
2022-07-26T10:36:04.723Z,55
2022-07-26T10:38:04.090Z,56
2022-07-26T10:40:02.810Z,53
2022-07-26T10:42:03.130Z,52
2022-07-26T10:44:09.433Z,52
2022-07-26T10:46:06.274Z,53
2022-07-26T10:48:06.135Z,53
2022-07-26T10:50:06.446Z,50
2022-07-26T10:52:03.321Z,49
2022-07-26T10:54:03.990Z,52
2022-07-26T10:56:01.410Z,52
2022-07-26T10:58:06.422Z,51
2022-07-26T11:00:04.160Z,51
2022-07-26T11:02:05.553Z,52
2022-07-26T11:04:06.159Z,51
2022-07-26T11:06:05.189Z,50
2022-07-26T11:08:03.339Z,50
2022-07-26T11:10:02.669Z,50
2022-07-26T11:12:06.597Z,49
2022-07-26T11:14:06.370Z,49
2022-07-26T11:16:06.407Z,50
2022-07-26T11:18:05.815Z,50
2022-07-26T11:20:06.380Z,50
2022-07-26T11:22:04.814Z,50
2022-07-26T11:24:04.073Z,48
2022-07-26T11:26:05.837Z,48
2022-07-26T11:28:03.070Z,51
2022-07-26T11:30:05.460Z,49
2022-07-26T11:32:14.466Z,48
2022-07-26T11:34:05.004Z,50
2022-07-26T11:36:05.968Z,49
2022-07-26T11:38:11.688Z,47
2022-07-26T11:40:02.950Z,48
2022-07-26T11:42:05.510Z,46
2022-07-26T11:44:04.768Z,46
2022-07-26T11:46:01.462Z,46
2022-07-26T11:48:03.074Z,46
2022-07-26T11:50:18.597Z,49
2022-07-26T11:52:04.996Z,46
2022-07-26T11:54:03.400Z,45
2022-07-26T11:56:06.330Z,46
2022-07-26T11:58:03.184Z,46
2022-07-26T12:00:03.084Z,46
2022-07-26T12:02:04.853Z,46
2022-07-26T12:04:06.488Z,46
2022-07-26T12:06:03.629Z,44
2022-07-26T12:08:05.449Z,44
2022-07-26T12:12:03.104Z,44
2022-07-26T12:14:03.193Z,45
2022-07-26T12:16:03.352Z,44
2022-07-26T12:18:05.142Z,44
2022-07-26T12:20:00.629Z,45
2022-07-26T12:22:05.501Z,45
2022-07-26T12:24:06.621Z,43
2022-07-26T12:26:09.645Z,45
2022-07-26T12:28:04.457Z,43
2022-07-26T12:30:04.673Z,43
2022-07-26T12:32:12.231Z,44
2022-07-26T12:34:04.506Z,44
2022-07-26T12:36:04.015Z,43
2022-07-26T12:38:06.540Z,45
2022-07-26T12:40:05.854Z,44
2022-07-26T12:42:05.738Z,45
2022-07-26T12:44:06.417Z,43
2022-07-26T12:46:03.433Z,44
2022-07-26T12:48:03.657Z,42
2022-07-26T12:50:05.090Z,43
2022-07-26T12:52:06.173Z,43
2022-07-26T12:54:03.272Z,42
2022-07-26T12:56:04.964Z,44
2022-07-26T12:58:01.098Z,43
2022-07-26T13:00:03.275Z,42
2022-07-26T13:02:04.079Z,42
2022-07-26T13:04:02.483Z,42
2022-07-26T13:06:03.403Z,42
2022-07-26T13:08:03.205Z,44
2022-07-26T13:10:30.314Z,44
2022-07-26T13:12:02.888Z,46
2022-07-26T13:14:03.889Z,43
2022-07-26T13:16:09.701Z,42
2022-07-26T13:18:05.415Z,43
2022-07-26T13:20:01.885Z,42
2022-07-26T13:22:06.251Z,43
2022-07-26T13:24:07.456Z,43
2022-07-26T13:26:10.210Z,43
2022-07-26T13:28:04.860Z,43
2022-07-26T13:30:03.413Z,42
2022-07-26T13:32:05.680Z,45
2022-07-26T13:34:06.454Z,47
2022-07-26T13:36:06.287Z,42
2022-07-26T13:38:03.339Z,42
2022-07-26T13:40:04.136Z,43
2022-07-26T13:42:09.530Z,42
2022-07-26T13:44:06.074Z,43
2022-07-26T13:46:04.811Z,42
2022-07-26T13:48:06.211Z,42
2022-07-26T13:50:06.586Z,42
2022-07-26T13:52:05.331Z,43
2022-07-26T13:54:03.244Z,46
2022-07-26T13:56:06.022Z,42
2022-07-26T13:58:09.650Z,41
2022-07-26T14:00:05.529Z,43
2022-07-26T14:02:05.146Z,41
2022-07-26T14:04:04.010Z,42
2022-07-26T14:06:01.526Z,42
2022-07-26T14:08:06.375Z,41
2022-07-26T14:10:03.743Z,42
2022-07-26T14:12:03.292Z,45
2022-07-26T14:14:10.150Z,42
2022-07-26T14:16:05.762Z,42
2022-07-26T14:18:06.656Z,42
2022-07-26T14:20:04.192Z,42
2022-07-26T14:22:09.752Z,42
2022-07-26T14:24:05.003Z,42
2022-07-26T14:26:05.439Z,42
2022-07-26T14:28:06.858Z,43
2022-07-26T14:30:04.700Z,42
2022-07-26T14:32:06.384Z,43
2022-07-26T14:34:06.792Z,42
2022-07-26T14:36:05.462Z,42
2022-07-26T14:38:04.502Z,42
2022-07-26T14:40:05.247Z,44
2022-07-26T14:42:05.242Z,44
2022-07-26T14:44:03.321Z,46
2022-07-26T14:46:04.151Z,43
2022-07-26T14:48:11.025Z,43
2022-07-26T14:50:07.063Z,45
2022-07-26T14:52:04.488Z,44
2022-07-26T14:54:03.413Z,43
2022-07-26T14:56:05.805Z,44
2022-07-26T14:58:03.195Z,43
2022-07-26T15:00:05.988Z,43
2022-07-26T15:02:06.435Z,42
2022-07-26T15:04:03.312Z,42
2022-07-26T15:06:05.564Z,42
2022-07-26T15:08:06.068Z,42
2022-07-26T15:10:03.250Z,42
2022-07-26T15:12:06.317Z,42
2022-07-26T15:14:05.974Z,43
2022-07-26T15:16:06.452Z,42
2022-07-26T15:18:03.418Z,43
2022-07-26T15:20:03.168Z,43
2022-07-26T15:22:05.470Z,43
2022-07-26T15:24:06.407Z,42
2022-07-26T15:26:04.569Z,43
2022-07-26T15:28:03.217Z,42
2022-07-26T15:30:13.393Z,43
2022-07-26T15:32:04.295Z,42
2022-07-26T15:34:06.390Z,43
2022-07-26T15:36:05.804Z,42
2022-07-26T15:38:04.903Z,42
2022-07-26T15:40:06.446Z,41
2022-07-26T15:42:07.392Z,42
2022-07-26T15:44:06.486Z,42
2022-07-26T15:46:05.786Z,45
2022-07-26T15:48:14.807Z,41
2022-07-26T15:50:03.566Z,41
2022-07-26T15:52:03.197Z,42
2022-07-26T15:54:06.548Z,42
2022-07-26T15:56:04.866Z,41
2022-07-26T15:58:03.414Z,41
2022-07-26T16:00:11.309Z,41
2022-07-26T16:02:03.634Z,41
2022-07-26T16:04:02.738Z,42
2022-07-26T16:06:06.367Z,42
2022-07-26T16:08:03.067Z,41
2022-07-26T16:10:03.607Z,41
2022-07-26T16:12:06.408Z,42
2022-07-26T16:14:06.307Z,41
2022-07-26T16:16:04.252Z,42
2022-07-26T16:18:06.736Z,41
2022-07-26T16:20:05.705Z,41
2022-07-26T16:22:06.470Z,41
2022-07-26T16:24:06.978Z,42
2022-07-26T16:26:03.265Z,42
2022-07-26T16:30:09.703Z,41
2022-07-26T16:32:05.302Z,41
2022-07-26T16:34:03.217Z,41
2022-07-26T16:36:06.258Z,41
2022-07-26T16:38:05.009Z,41
2022-07-26T16:40:05.362Z,42
2022-07-26T16:42:06.985Z,41
2022-07-26T16:44:02.858Z,41
2022-07-26T16:46:05.387Z,41
2022-07-26T16:48:03.373Z,40
2022-07-26T16:50:03.387Z,40
2022-07-26T16:52:01.449Z,41
2022-07-26T16:54:04.188Z,40
2022-07-26T16:56:03.318Z,40
2022-07-26T16:58:06.427Z,41
2022-07-26T17:00:03.423Z,40
2022-07-26T17:02:01.713Z,40
2022-07-26T17:04:04.040Z,40
2022-07-26T17:06:06.417Z,40
2022-07-26T17:08:04.958Z,41
2022-07-26T17:10:04.220Z,40
2022-07-26T17:12:06.503Z,40
2022-07-26T17:14:05.335Z,41
2022-07-26T17:16:09.504Z,41
2022-07-26T17:18:06.820Z,40
2022-07-26T17:20:03.416Z,40
2022-07-26T17:22:03.440Z,41
2022-07-26T17:24:06.421Z,40
2022-07-26T17:26:05.791Z,40
2022-07-26T17:28:04.996Z,41
2022-07-26T17:30:07.009Z,41
2022-07-26T17:32:05.007Z,42
2022-07-26T17:34:06.445Z,42
2022-07-26T17:36:08.602Z,41
2022-07-26T17:38:05.101Z,42
2022-07-26T17:40:01.343Z,43
2022-07-26T17:42:06.381Z,43
2022-07-26T17:44:03.452Z,43
2022-07-26T17:46:04.491Z,44
2022-07-26T17:48:06.439Z,43
2022-07-26T17:52:06.638Z,44
2022-07-26T17:54:06.200Z,43
2022-07-26T17:56:09.501Z,44
2022-07-26T17:58:03.442Z,45
2022-07-26T18:00:06.475Z,45
2022-07-26T18:02:04.699Z,44
2022-07-26T18:04:03.276Z,44
2022-07-26T18:06:06.088Z,45
2022-07-26T18:08:05.490Z,46
2022-07-26T18:10:05.115Z,45
2022-07-26T18:12:04.575Z,45
2022-07-26T18:14:05.475Z,45
2022-07-26T18:16:06.049Z,44
2022-07-26T18:18:06.229Z,45
2022-07-26T18:20:06.244Z,46
2022-07-26T18:22:06.032Z,47
2022-07-26T18:24:16.151Z,46
2022-07-26T18:26:06.187Z,46
2022-07-26T18:28:06.973Z,46
2022-07-26T18:30:03.277Z,47
2022-07-26T18:32:07.442Z,47
2022-07-26T18:34:06.510Z,47
2022-07-26T18:36:03.272Z,48
2022-07-26T18:38:06.559Z,48
2022-07-26T18:40:04.630Z,48
2022-07-26T18:42:03.437Z,49
2022-07-26T18:44:06.458Z,49
2022-07-26T18:46:06.193Z,49
2022-07-26T18:48:03.458Z,49
2022-07-26T18:50:02.918Z,48
2022-07-26T18:52:06.113Z,48
2022-07-26T18:54:06.158Z,49
2022-07-26T18:56:05.441Z,49
2022-07-26T18:58:07.021Z,48
2022-07-26T19:00:03.455Z,49
2022-07-26T19:02:03.357Z,49
2022-07-26T19:04:06.955Z,49
2022-07-26T19:06:05.014Z,49
2022-07-26T19:08:09.630Z,50
2022-07-26T19:10:05.031Z,50
2022-07-26T19:12:06.406Z,50
2022-07-26T19:14:05.482Z,51
2022-07-26T19:16:05.095Z,50
2022-07-26T19:18:03.544Z,50
2022-07-26T19:20:03.702Z,50
2022-07-26T19:22:05.389Z,50
2022-07-26T19:24:05.807Z,51
2022-07-26T19:26:04.835Z,51
2022-07-26T19:28:05.584Z,50
2022-07-26T19:30:07.153Z,50
2022-07-26T19:32:04.030Z,50
2022-07-26T19:34:04.612Z,51
2022-07-26T19:36:04.915Z,51
2022-07-26T19:38:03.316Z,51
2022-07-26T19:40:03.442Z,52
2022-07-26T19:44:06.746Z,53
2022-07-26T19:46:05.362Z,53
2022-07-26T19:48:03.258Z,53
2022-07-26T19:50:05.071Z,53
2022-07-26T19:52:05.178Z,53
2022-07-26T19:54:05.042Z,52
2022-07-26T19:56:05.404Z,53
2022-07-26T19:58:03.238Z,53
2022-07-26T20:00:03.680Z,53
2022-07-26T20:02:03.524Z,53
2022-07-26T20:04:05.922Z,53
2022-07-26T20:06:06.331Z,53
2022-07-26T20:08:03.206Z,54
2022-07-26T20:10:05.681Z,54
2022-07-26T20:12:05.338Z,54
2022-07-26T20:14:03.395Z,53
2022-07-26T20:16:03.263Z,52
2022-07-26T20:18:03.346Z,54
2022-07-26T20:20:06.677Z,54
2022-07-26T20:22:06.402Z,54
2022-07-26T20:24:05.369Z,54
2022-07-26T20:26:05.687Z,54
2022-07-26T20:28:04.955Z,55
2022-07-26T20:30:04.903Z,56
2022-07-26T20:32:03.710Z,55
2022-07-26T20:34:07.132Z,55
2022-07-26T20:36:04.911Z,54
2022-07-26T20:38:05.746Z,55
2022-07-26T20:40:03.420Z,55
2022-07-26T20:42:05.817Z,56
2022-07-26T20:44:02.744Z,56
2022-07-26T20:46:04.364Z,57
2022-07-26T20:48:05.417Z,57
2022-07-26T20:50:03.748Z,56
2022-07-26T20:52:03.760Z,56
2022-07-26T20:54:06.527Z,55
2022-07-26T20:56:06.408Z,56
2022-07-26T20:58:04.101Z,56
2022-07-26T21:00:03.096Z,56
2022-07-26T21:02:04.719Z,56
2022-07-26T21:04:03.322Z,56
2022-07-26T21:06:05.601Z,57
2022-07-26T21:08:05.050Z,58
2022-07-26T21:10:03.387Z,57
2022-07-26T21:12:06.451Z,56
2022-07-26T21:14:06.531Z,56
2022-07-26T21:16:05.734Z,57
2022-07-26T21:18:04.392Z,57
2022-07-26T21:20:06.438Z,59
2022-07-26T21:22:05.086Z,58
2022-07-26T21:24:04.490Z,58
2022-07-26T21:26:05.508Z,58
2022-07-26T21:28:03.317Z,58
2022-07-26T21:30:01.596Z,57
2022-07-26T21:32:03.262Z,57
2022-07-26T21:34:05.381Z,58
2022-07-26T21:36:03.259Z,59
2022-07-26T21:38:06.378Z,59
2022-07-26T21:40:04.672Z,59
2022-07-26T21:42:03.354Z,59
2022-07-26T21:44:05.065Z,61
2022-07-26T21:46:07.793Z,60
2022-07-26T21:48:01.890Z,60
2022-07-26T21:50:05.066Z,60
2022-07-26T21:52:05.487Z,60
2022-07-26T21:54:06.397Z,61
2022-07-26T21:56:04.367Z,64
2022-07-26T21:58:03.679Z,65
2022-07-26T22:00:02.861Z,64
2022-07-26T22:02:03.504Z,63
2022-07-26T22:04:06.701Z,64
2022-07-26T22:06:05.044Z,62
2022-07-26T22:08:06.442Z,61
2022-07-26T22:10:03.496Z,61
2022-07-26T22:12:04.557Z,60
2022-07-26T22:14:05.122Z,60
2022-07-26T22:16:04.666Z,60
2022-07-26T22:18:05.025Z,60
2022-07-26T22:20:03.363Z,61
2022-07-26T22:22:03.811Z,61
2022-07-26T22:24:06.475Z,61
2022-07-26T22:26:06.522Z,62
2022-07-26T22:30:03.926Z,62
2022-07-26T22:32:03.441Z,61
2022-07-26T22:34:04.239Z,61
2022-07-26T22:36:03.450Z,61
2022-07-26T22:38:03.372Z,62
2022-07-26T22:40:03.866Z,63
2022-07-26T22:42:15.178Z,64
2022-07-26T22:44:03.744Z,65
2022-07-26T22:46:04.437Z,64
2022-07-26T22:50:05.813Z,64
2022-07-26T22:52:02.185Z,64
2022-07-26T22:54:03.343Z,64
2022-07-26T22:56:03.126Z,64
2022-07-26T22:58:03.268Z,65
2022-07-26T23:00:03.626Z,65
2022-07-26T23:02:06.387Z,66
2022-07-26T23:04:05.007Z,66
2022-07-26T23:06:03.422Z,68
2022-07-26T23:08:03.915Z,68
2022-07-26T23:10:04.540Z,68
2022-07-26T23:12:05.876Z,69
2022-07-26T23:14:03.332Z,70
2022-07-26T23:16:06.611Z,70
2022-07-26T23:18:03.600Z,70
2022-07-26T23:20:02.064Z,70
2022-07-26T23:22:03.612Z,70
2022-07-26T23:24:08.042Z,69
2022-07-26T23:26:03.381Z,72
2022-07-26T23:28:04.108Z,70
2022-07-26T23:30:06.223Z,70
2022-07-26T23:32:06.691Z,69
2022-07-26T23:36:06.585Z,68
2022-07-26T23:38:04.574Z,69
2022-07-26T23:40:03.834Z,69
2022-07-26T23:42:03.312Z,68
2022-07-26T23:44:03.575Z,68
2022-07-26T23:46:01.584Z,67
2022-07-26T23:48:04.992Z,67
2022-07-26T23:50:03.013Z,68
2022-07-26T23:52:05.422Z,67
2022-07-26T23:54:03.645Z,68
2022-07-26T23:56:04.978Z,69
2022-07-26T23:58:03.400Z,69
